createdAt,value
2019-05-17T00:03:53.775Z,99.90
2019-05-17T00:08:59.718Z,99.90
2019-05-17T00:14:06.333Z,99.90
2019-05-17T00:19:12.438Z,99.90
2019-05-17T00:24:18.421Z,99.90
2019-05-17T00:29:26.328Z,99.90
2019-05-17T00:34:31.728Z,99.90
2019-05-17T00:39:37.323Z,99.90
2019-05-17T00:44:43.921Z,99.90
2019-05-17T00:49:49.937Z,99.90
2019-05-17T00:54:56.318Z,99.90
2019-05-17T01:00:02.406Z,99.90
2019-05-17T01:05:09.545Z,99.90
2019-05-17T01:10:16.661Z,99.90
2019-05-17T01:15:22.912Z,99.90
2019-05-17T01:20:28.825Z,99.90
2019-05-17T01:25:36.351Z,99.90
2019-05-17T01:30:41.777Z,99.90
2019-05-17T01:35:47.474Z,99.90
2019-05-17T01:40:53.207Z,99.90
2019-05-17T01:45:59.341Z,99.90
2019-05-17T01:51:04.814Z,99.90
2019-05-17T01:56:10.107Z,99.90
2019-05-17T02:01:17.087Z,99.90
2019-05-17T02:06:22.506Z,99.90
2019-05-17T02:11:27.807Z,99.90
2019-05-17T02:16:33.191Z,99.90
2019-05-17T02:21:39.098Z,99.90
2019-05-17T02:26:46.591Z,99.90
2019-05-17T02:31:53.676Z,99.90
2019-05-17T02:36:58.983Z,99.90
2019-05-17T02:42:04.378Z,99.90
2019-05-17T02:47:09.703Z,99.90
2019-05-17T02:52:15.026Z,99.90
2019-05-17T02:57:23.165Z,99.90
2019-05-17T03:02:28.192Z,99.90
2019-05-17T03:07:33.595Z,99.90
2019-05-17T03:12:38.907Z,99.90
2019-05-17T03:17:44.275Z,99.90
2019-05-17T03:22:52.333Z,99.90
2019-05-17T03:27:56.533Z,99.90
2019-05-17T03:33:07.002Z,99.90
2019-05-17T03:38:09.168Z,99.90
2019-05-17T03:43:15.140Z,99.90
2019-05-17T03:48:22.125Z,99.90
2019-05-17T03:53:27.583Z,99.90
2019-05-17T03:58:33.547Z,99.90
2019-05-17T04:03:38.940Z,99.90
2019-05-17T04:08:44.249Z,99.90
2019-05-17T04:13:49.639Z,99.90
2019-05-17T04:18:54.977Z,99.90
2019-05-17T04:24:03.269Z,99.90
2019-05-17T04:29:08.339Z,99.90
2019-05-17T04:34:13.800Z,99.90
2019-05-17T04:39:22.385Z,99.90
2019-05-17T04:44:26.215Z,99.90
2019-05-17T04:49:33.118Z,99.90
2019-05-17T04:54:38.679Z,99.90
2019-05-17T04:59:44.115Z,99.90
2019-05-17T05:04:49.411Z,99.90
2019-05-17T05:09:54.735Z,99.90
2019-05-17T05:15:03.211Z,99.90
2019-05-17T05:20:07.482Z,99.90
2019-05-17T05:25:13.688Z,99.90
2019-05-17T05:30:18.992Z,99.90
2019-05-17T05:35:24.299Z,99.90
2019-05-17T05:40:31.931Z,99.90
2019-05-17T05:45:36.655Z,99.90
2019-05-17T05:50:43.230Z,99.90
2019-05-17T05:55:48.783Z,99.90
2019-05-17T06:00:54.154Z,99.90
2019-05-17T06:06:01.564Z,99.90
2019-05-17T06:11:07.417Z,99.90
2019-05-17T06:16:12.845Z,99.90
2019-05-17T06:21:18.165Z,99.90
2019-05-17T06:26:23.982Z,99.90
2019-05-17T06:31:29.536Z,99.90
2019-05-17T06:36:34.859Z,99.90
2019-05-17T06:41:41.936Z,99.90
2019-05-17T06:46:47.424Z,99.90
2019-05-17T06:51:52.797Z,99.90
2019-05-17T06:56:58.700Z,99.90
2019-05-17T07:02:04.706Z,99.90
2019-05-17T07:07:30.580Z,99.90
2019-05-17T07:12:35.701Z,99.90
2019-05-17T07:17:41.075Z,99.90
2019-05-17T07:22:46.708Z,99.90
2019-05-17T07:27:52.373Z,99.90
2019-05-17T07:33:00.190Z,99.90
2019-05-17T07:38:05.116Z,99.90
2019-05-17T07:43:14.529Z,99.90
2019-05-17T07:48:19.875Z,99.90
2019-05-17T07:53:25.236Z,99.90
2019-05-17T07:58:30.939Z,99.90
2019-05-17T08:03:36.646Z,99.90
2019-05-17T08:08:42.121Z,99.90
2019-05-17T08:13:50.279Z,99.90
2019-05-17T08:18:55.541Z,99.90
2019-05-17T08:24:01.295Z,99.90
2019-05-17T08:29:09.844Z,99.90
2019-05-17T08:34:14.606Z,99.90
2019-05-17T08:39:20.460Z,99.90
2019-05-17T08:44:26.751Z,99.90
2019-05-17T08:49:35.375Z,99.90
2019-05-17T08:54:42.928Z,99.90
2019-05-17T08:59:49.780Z,99.90
2019-05-17T09:04:55.393Z,99.90
2019-05-17T09:10:01.763Z,99.90
2019-05-17T09:15:10.355Z,99.90
2019-05-17T09:20:16.101Z,99.90
2019-05-17T09:25:22.176Z,99.90
2019-05-17T09:30:31.165Z,99.90
2019-05-17T09:35:35.253Z,99.90
2019-05-17T09:40:40.849Z,99.90
2019-05-17T09:45:46.386Z,99.90
2019-05-17T09:50:52.014Z,99.90
2019-05-17T09:55:57.576Z,99.90
2019-05-17T10:01:03.097Z,99.90
2019-05-17T10:06:09.685Z,99.90
2019-05-17T10:11:15.367Z,99.90
2019-05-17T10:16:20.894Z,99.90
2019-05-17T10:21:26.521Z,99.90
2019-05-17T10:26:31.854Z,99.90
2019-05-17T10:31:39.709Z,99.90
2019-05-17T10:36:44.532Z,99.90
2019-05-17T10:41:50.183Z,99.90
2019-05-17T10:46:55.915Z,98.60
2019-05-17T10:52:02.296Z,99.90
2019-05-17T10:57:10.255Z,98.30
2019-05-17T11:02:15.178Z,94.70
2019-05-17T11:07:20.751Z,94.80
2019-05-17T11:12:26.234Z,94.60
2019-05-17T11:17:31.784Z,93.80
2019-05-17T11:22:37.281Z,92.20
2019-05-17T11:27:42.892Z,93.10
2019-05-17T11:32:48.390Z,90.80
2019-05-17T11:37:53.948Z,86.00
2019-05-17T11:42:59.551Z,87.60
2019-05-17T11:48:05.083Z,88.60
2019-05-17T11:53:10.681Z,84.70
2019-05-17T11:58:16.188Z,81.30
2019-05-17T12:03:21.727Z,76.50
2019-05-17T12:08:27.318Z,75.40
2019-05-17T12:13:32.976Z,78.10
2019-05-17T12:18:38.564Z,72.80
2019-05-17T12:23:45.092Z,73.40
2019-05-17T12:28:50.596Z,73.70
2019-05-17T12:33:56.117Z,77.40
2019-05-17T12:39:01.600Z,75.90
2019-05-17T12:44:08.999Z,71.40
2019-05-17T12:49:14.481Z,71.80
2019-05-17T12:54:19.995Z,72.10
2019-05-17T12:59:25.461Z,66.90
2019-05-17T13:04:31.008Z,66.70
2019-05-17T13:09:36.633Z,63.50
2019-05-17T13:14:42.180Z,65.50
2019-05-17T13:19:47.853Z,60.60
2019-05-17T13:24:53.454Z,64.80
2019-05-17T13:29:58.780Z,58.60
2019-05-17T13:35:04.848Z,58.10
2019-05-17T13:40:12.884Z,62.30
2019-05-17T13:45:19.375Z,58.40
2019-05-17T13:50:27.337Z,56.50
2019-05-17T13:55:34.121Z,53.40
2019-05-17T14:00:42.325Z,52.50
2019-05-17T14:05:49.057Z,52.10
2019-05-17T14:10:55.512Z,52.50
2019-05-17T14:16:03.037Z,50.10
2019-05-17T14:21:09.026Z,50.00
2019-05-17T14:26:16.489Z,50.10
2019-05-17T14:31:22.607Z,47.80
2019-05-17T14:36:28.643Z,49.00
2019-05-17T14:41:34.235Z,50.00
2019-05-17T14:46:40.937Z,48.00
2019-05-17T14:51:46.913Z,49.60
2019-05-17T14:56:56.887Z,49.30
2019-05-17T15:02:07.693Z,47.60
2019-05-17T15:07:15.890Z,46.20
2019-05-17T15:12:28.215Z,47.00
2019-05-17T15:17:35.036Z,47.00
2019-05-17T15:22:40.368Z,48.00
2019-05-17T15:27:48.066Z,45.90
2019-05-17T15:32:54.401Z,49.70
2019-05-17T15:38:00.724Z,46.20
2019-05-17T15:43:06.733Z,46.90
2019-05-17T15:48:12.256Z,48.30
2019-05-17T15:53:17.920Z,48.10
2019-05-17T15:58:23.504Z,48.60
2019-05-17T16:03:29.710Z,51.10
2019-05-17T16:08:35.035Z,55.00
2019-05-17T16:13:40.351Z,58.70
2019-05-17T16:18:46.608Z,61.80
2019-05-17T16:23:51.918Z,61.40
2019-05-17T16:28:57.240Z,62.10
2019-05-17T16:34:02.670Z,63.40
2019-05-17T16:39:08.711Z,64.20
2019-05-17T16:44:14.763Z,62.80
2019-05-17T16:49:20.119Z,60.40
2019-05-17T16:54:25.367Z,67.20
2019-05-17T16:59:30.832Z,70.00
2019-05-17T17:04:36.476Z,71.10
2019-05-17T17:09:42.388Z,73.80
2019-05-17T17:14:47.679Z,73.70
2019-05-17T17:19:53.614Z,75.70
2019-05-17T17:24:58.927Z,76.20
2019-05-17T17:30:05.760Z,79.90
2019-05-17T17:35:12.047Z,80.80
2019-05-17T17:40:22.453Z,82.60
2019-05-17T17:45:28.099Z,85.30
2019-05-17T17:50:33.472Z,87.70
2019-05-17T17:55:38.807Z,91.30
2019-05-17T18:00:44.217Z,93.80
2019-05-17T18:05:49.768Z,95.40
2019-05-17T18:10:55.085Z,96.40
2019-05-17T18:16:00.514Z,98.00
2019-05-17T18:21:05.851Z,99.70
2019-05-17T18:26:11.281Z,99.90
2019-05-17T18:31:18.747Z,99.90
2019-05-17T18:36:24.040Z,99.90
2019-05-17T18:41:29.533Z,99.90
2019-05-17T18:46:34.879Z,99.90
2019-05-17T18:51:40.257Z,99.90
2019-05-17T18:56:45.595Z,99.90
2019-05-17T19:01:51.031Z,99.90
2019-05-17T19:06:56.343Z,99.90
2019-05-17T19:12:02.682Z,99.90
2019-05-17T19:17:08.198Z,99.90
2019-05-17T19:22:13.497Z,99.90
2019-05-17T19:27:18.831Z,99.90
2019-05-17T19:32:24.190Z,99.90
2019-05-17T19:37:29.503Z,99.90
2019-05-17T19:42:35.903Z,99.90
2019-05-17T19:47:41.228Z,99.90
2019-05-17T19:52:46.529Z,99.90
2019-05-17T19:57:52.007Z,99.90
2019-05-17T20:02:57.361Z,99.90
2019-05-17T20:08:02.617Z,99.90
2019-05-17T20:13:07.928Z,99.90
2019-05-17T20:18:13.417Z,99.90
2019-05-17T20:23:18.813Z,99.90
2019-05-17T20:28:24.245Z,99.90
2019-05-17T20:33:29.551Z,99.90
2019-05-17T20:38:34.883Z,99.90
2019-05-17T20:43:40.226Z,99.90
2019-05-17T20:48:45.508Z,99.90
2019-05-17T20:53:50.808Z,99.90
2019-05-17T20:58:56.142Z,99.90
2019-05-17T21:04:01.543Z,99.90
2019-05-17T21:09:07.639Z,99.90
2019-05-17T21:14:12.897Z,99.90
2019-05-17T21:19:18.240Z,99.90
2019-05-17T21:24:23.572Z,99.90
2019-05-17T21:29:28.862Z,99.90
2019-05-17T21:34:34.189Z,99.90
2019-05-17T21:39:41.976Z,99.90
2019-05-17T21:44:46.447Z,99.90
2019-05-17T21:49:52.203Z,99.90
2019-05-17T21:54:57.505Z,99.90
2019-05-17T22:00:03.580Z,99.90
2019-05-17T22:05:10.523Z,99.90
2019-05-17T22:10:15.886Z,99.90
2019-05-17T22:15:21.188Z,99.90
2019-05-17T22:20:26.598Z,99.90
2019-05-17T22:25:32.297Z,99.90
2019-05-17T22:30:37.719Z,99.90
2019-05-17T22:35:43.664Z,99.90
2019-05-17T22:40:48.932Z,99.90
2019-05-17T22:45:54.887Z,99.90
2019-05-17T22:51:00.272Z,99.90
2019-05-17T22:56:07.185Z,99.90
2019-05-17T23:01:12.891Z,99.90
2019-05-17T23:06:18.435Z,99.90
2019-05-17T23:11:25.043Z,99.90
2019-05-17T23:16:31.717Z,99.90
2019-05-17T23:21:37.209Z,99.90
2019-05-17T23:26:43.046Z,99.90
2019-05-17T23:31:48.364Z,99.90
2019-05-17T23:36:54.227Z,99.90
2019-05-17T23:42:03.783Z,99.90
2019-05-17T23:47:08.959Z,99.90
2019-05-17T23:52:14.747Z,99.90
2019-05-17T23:57:20.412Z,99.90
